Time;durP1;ratioP1;P1;durP2;ratioP2;P2;SDS_P1;SDS_P2;PMS_P1;PMS_P2;Temp;Humidity;BMP_temperature;BMP_pressure;BME280_temperature;BME280_humidity;BME280_pressure;Samples;Min_cycle;Max_cycle;Signal;HPM_P1;HPM_P2
2023/07/11 00:00:18;;;;;;;6.07;3.63;;;;;;;21.05;100.00;101614.69;4900701;29;20065;-72
2023/07/11 00:02:47;;;;;;;8.93;4.07;;;;;;;21.00;100.00;101602.97;4929428;29;20142;-76
2023/07/11 00:05:16;;;;;;;7.07;4.25;;;;;;;20.96;100.00;101605.19;4925071;29;20121;-71
2023/07/11 00:07:44;;;;;;;8.32;4.22;;;;;;;20.95;100.00;101606.19;4926410;29;20107;-76
2023/07/11 00:10:14;;;;;;;10.30;4.13;;;;;;;20.93;100.00;101603.75;4926730;29;20052;-76
2023/07/11 00:12:41;;;;;;;4.82;3.47;;;;;;;20.91;100.00;101596.94;4918365;29;20051;-76
2023/07/11 00:15:10;;;;;;;10.10;4.40;;;;;;;20.88;100.00;101600.84;4924884;29;20147;-75
2023/07/11 00:17:37;;;;;;;5.28;3.80;;;;;;;20.84;100.00;101593.44;4922677;29;20376;-76
2023/07/11 00:20:05;;;;;;;6.47;3.90;;;;;;;20.77;100.00;101592.56;4930732;29;20058;-74
2023/07/11 00:22:32;;;;;;;;;;;;;;;20.72;100.00;101585.97;4922694;29;20056;-76
2023/07/11 00:24:59;;;;;;;10.80;4.00;;;;;;;20.71;100.00;101589.66;4928685;29;19973;-76
2023/07/11 00:27:25;;;;;;;8.00;3.58;;;;;;;20.67;100.00;101584.91;4923423;29;20138;-73
2023/07/11 00:29:52;;;;;;;7.80;3.75;;;;;;;20.66;100.00;101586.75;4922858;29;20051;-73
2023/07/11 00:32:19;;;;;;;8.77;3.50;;;;;;;20.62;100.00;101579.31;4929912;29;20054;-72
2023/07/11 00:34:45;;;;;;;11.85;4.07;;;;;;;20.62;100.00;101579.31;4927648;29;20048;-73
2023/07/11 00:37:12;;;;;;;8.23;3.65;;;;;;;20.60;100.00;101582.22;4917094;29;20080;-72
2023/07/11 00:39:38;;;;;;;8.18;3.40;;;;;;;20.58;100.00;101580.69;4910293;29;20048;-72
2023/07/11 00:42:07;;;;;;;6.88;3.40;;;;;;;20.58;100.00;101584.22;4909126;29;20055;-72
2023/07/11 00:44:57;;;;;;;7.38;3.47;;;;;;;20.58;100.00;101576.22;4932545;29;20056;-73
2023/07/11 00:47:26;;;;;;;8.15;3.40;;;;;;;20.56;100.00;101570.22;4926751;29;20059;-72
2023/07/11 00:50:05;;;;;;;7.53;3.28;;;;;;;20.53;100.00;101566.13;4934325;29;20055;-72
2023/07/11 00:52:36;;;;;;;5.93;3.33;;;;;;;20.54;100.00;101574.94;4927905;28;20123;-73
2023/07/11 00:55:08;;;;;;;5.70;3.67;;;;;;;20.50;100.00;101573.69;4929997;29;20077;-72
2023/07/11 00:57:39;;;;;;;7.72;3.95;;;;;;;20.47;100.00;101571.41;4922532;29;20114;-72
2023/07/11 01:00:08;;;;;;;12.38;3.75;;;;;;;20.44;100.00;101566.47;4916969;29;20059;-73
2023/07/11 01:02:36;;;;;;;6.53;3.50;;;;;;;20.46;100.00;101569.75;4905921;28;20079;-68
2023/07/11 01:05:03;;;;;;;6.00;3.22;;;;;;;20.43;100.00;101565.66;4932074;29;20051;-68
2023/07/11 01:07:34;;;;;;;7.53;3.20;;;;;;;20.41;100.00;101569.53;4929600;29;20048;-70
2023/07/11 01:10:01;;;;;;;6.30;3.22;;;;;;;20.38;100.00;101565.38;4920630;28;20137;-69
2023/07/11 01:12:27;;;;;;;5.43;3.35;;;;;;;20.34;100.00;101572.94;4931193;29;20103;-69
2023/07/11 01:14:54;;;;;;;8.25;3.25;;;;;;;20.30;100.00;101569.00;4927597;29;20040;-68
2023/07/11 01:17:32;;;;;;;6.68;3.10;;;;;;;20.28;100.00;101571.06;4933380;29;20520;-69
2023/07/11 01:20:04;;;;;;;7.97;3.63;;;;;;;20.27;100.00;101571.25;4923970;29;20683;-68
2023/07/11 01:22:32;;;;;;;8.25;3.28;;;;;;;20.22;100.00;101561.16;4924896;29;20134;-69
2023/07/11 01:25:04;;;;;;;6.10;3.28;;;;;;;20.24;100.00;101560.97;4927858;29;20091;-69
2023/07/11 01:27:31;;;;;;;7.38;3.63;;;;;;;20.22;100.00;101563.81;4909751;29;20087;-68
2023/07/11 01:29:58;;;;;;;12.25;3.60;;;;;;;20.22;100.00;101555.03;4932641;29;20058;-68
2023/07/11 01:32:25;;;;;;;7.38;3.13;;;;;;;20.20;100.00;101565.88;4915312;28;20535;-68
2023/07/11 01:34:51;;;;;;;6.43;3.20;;;;;;;20.20;100.00;101559.72;4931732;29;20520;-69
2023/07/11 01:37:18;;;;;;;7.85;2.92;;;;;;;20.16;100.00;101553.94;4919593;29;20512;-69
2023/07/11 01:39:44;;;;;;;7.00;3.58;;;;;;;20.16;100.00;101545.97;4928832;29;20853;-68
2023/07/11 01:42:10;;;;;;;7.00;3.05;;;;;;;20.20;100.00;101543.75;4932748;29;20047;-69
2023/07/11 01:44:37;;;;;;;7.50;2.92;;;;;;;20.17;100.00;101544.09;4928598;29;20200;-68
2023/07/11 01:47:05;;;;;;;5.70;3.00;;;;;;;20.16;100.00;101540.63;4932075;29;20174;-68
2023/07/11 01:49:31;;;;;;;7.97;3.20;;;;;;;20.13;100.00;101539.19;4917623;29;20079;-68
2023/07/11 01:52:03;;;;;;;6.80;2.97;;;;;;;20.11;100.00;101546.53;4927790;29;20127;-69
2023/07/11 01:54:30;;;;;;;9.02;3.15;;;;;;;20.05;100.00;101531.34;4930886;29;20122;-68
2023/07/11 01:56:59;;;;;;;5.03;2.70;;;;;;;20.07;100.00;101531.97;4932728;29;20091;-68
2023/07/11 01:59:27;;;;;;;8.82;3.20;;;;;;;20.04;100.00;101518.22;4926458;29;20122;-68
2023/07/11 02:01:53;;;;;;;6.28;2.45;;;;;;;20.04;100.00;101515.53;4934274;29;20501;-68
2023/07/11 02:04:21;;;;;;;6.40;2.75;;;;;;;20.02;100.00;101512.25;4927426;29;20063;-69
2023/07/11 02:06:49;;;;;;;6.97;3.25;;;;;;;19.99;100.00;101517.94;4922297;29;20051;-69
2023/07/11 02:09:17;;;;;;;7.10;3.00;;;;;;;19.99;100.00;101517.94;4931364;29;20540;-70
2023/07/11 02:11:44;;;;;;;4.15;2.70;;;;;;;19.94;100.00;101507.88;4923659;29;20059;-68
2023/07/11 02:14:16;;;;;;;5.28;2.80;;;;;;;19.94;100.00;101511.34;4931275;29;20051;-70
2023/07/11 02:16:46;;;;;;;5.03;2.75;;;;;;;19.91;100.00;101501.06;4924177;29;20043;-68
2023/07/11 02:19:15;;;;;;;7.32;2.90;;;;;;;19.85;100.00;101501.84;4909701;29;20126;-68
2023/07/11 02:21:42;;;;;;;4.82;2.53;;;;;;;19.78;100.00;101490.34;4929408;29;20083;-68
2023/07/11 02:24:11;;;;;;;7.07;2.90;;;;;;;19.74;100.00;101492.56;4905612;29;20052;-68
2023/07/11 02:26:38;;;;;;;6.55;3.17;;;;;;;19.70;100.00;101491.25;4931370;29;20078;-68
2023/07/11 02:29:05;;;;;;;7.93;3.22;;;;;;;19.70;100.00;101477.13;4926350;29;20067;-67
2023/07/11 02:31:32;;;;;;;6.80;3.22;;;;;;;19.69;100.00;101489.59;4927356;29;20496;-68
2023/07/11 02:34:00;;;;;;;5.70;3.20;;;;;;;19.65;100.00;101488.34;4911411;28;20110;-68
2023/07/11 02:36:27;;;;;;;6.93;3.63;;;;;;;19.60;100.00;101477.44;4929982;29;20417;-68
2023/07/11 02:38:54;;;;;;;5.15;3.22;;;;;;;19.54;100.00;101484.34;4929687;29;20449;-68
2023/07/11 02:41:21;;;;;;;6.55;3.20;;;;;;;19.55;100.00;101474.53;4930187;28;20682;-69
2023/07/11 02:43:47;;;;;;;5.38;2.90;;;;;;;19.56;100.00;101473.50;4931604;29;20095;-69
2023/07/11 02:46:15;;;;;;;7.28;2.95;;;;;;;19.59;100.00;101469.66;4917631;29;20083;-69
2023/07/11 02:48:43;;;;;;;5.47;3.08;;;;;;;19.55;100.00;101467.34;4926533;29;20472;-68
2023/07/11 02:51:10;;;;;;;6.65;3.67;;;;;;;19.55;100.00;101467.34;4922866;29;20051;-69
2023/07/11 02:53:36;;;;;;;6.68;3.17;;;;;;;19.55;100.00;101461.22;4931731;29;20058;-68
2023/07/11 02:56:04;;;;;;;4.88;3.10;;;;;;;19.54;100.00;101459.56;4913076;29;20048;-68
2023/07/11 02:58:30;;;;;;;5.75;3.33;;;;;;;19.53;100.00;101458.75;4926063;29;20420;-68
2023/07/11 03:00:59;;;;;;;6.65;3.13;;;;;;;19.56;100.00;101458.38;4923269;29;20151;-68
2023/07/11 03:03:27;;;;;;;6.68;3.08;;;;;;;19.58;100.00;101441.38;4925700;29;20058;-68
2023/07/11 03:05:54;;;;;;;6.57;2.50;;;;;;;19.59;100.00;101446.53;4927387;29;20467;-67
2023/07/11 03:08:21;;;;;;;7.55;3.03;;;;;;;19.63;100.00;101441.66;4924209;29;20384;-70
2023/07/11 03:10:48;;;;;;;8.15;2.95;;;;;;;19.66;100.00;101442.09;4931226;29;20098;-69
2023/07/11 03:13:15;;;;;;;6.10;2.97;;;;;;;19.69;100.00;101438.22;4926676;29;20051;-68
2023/07/11 03:15:41;;;;;;;6.43;2.60;;;;;;;19.75;100.00;101432.97;4922724;29;20139;-69
2023/07/11 03:18:08;;;;;;;6.72;3.42;;;;;;;19.77;98.79;101434.63;4930645;29;20048;-70
2023/07/11 03:20:36;;;;;;;9.95;3.50;;;;;;;19.81;99.55;101428.72;4908392;29;20104;-67
2023/07/11 03:23:03;;;;;;;7.43;2.90;;;;;;;19.83;99.37;101433.84;4931433;29;20102;-68
2023/07/11 03:25:30;;;;;;;9.60;3.17;;;;;;;19.85;97.92;101432.63;4924192;29;20158;-69
2023/07/11 03:27:56;;;;;;;8.50;3.35;;;;;;;19.91;95.04;101425.72;4910549;29;20043;-69
2023/07/11 03:30:22;;;;;;;7.80;3.25;;;;;;;19.91;96.77;101426.53;4911909;29;20520;-70
2023/07/11 03:32:49;;;;;;;5.97;2.92;;;;;;;19.93;96.61;101418.34;4924757;29;20052;-68
2023/07/11 03:35:15;;;;;;;8.38;3.28;;;;;;;19.96;97.04;101415.31;4930462;29;20075;-68
2023/07/11 03:37:42;;;;;;;7.88;2.72;;;;;;;20.00;94.15;101421.91;4922320;29;20130;-67
2023/07/11 03:40:09;;;;;;;4.47;2.75;;;;;;;20.00;96.35;101407.78;4924702;29;20424;-70
2023/07/11 03:42:35;;;;;;;7.38;3.40;;;;;;;20.00;94.60;101419.25;4919215;29;20043;-68
2023/07/11 03:45:02;;;;;;;5.07;2.53;;;;;;;19.99;95.50;101409.59;4930237;29;20124;-67
2023/07/11 03:47:29;;;;;;;5.22;2.72;;;;;;;19.93;95.92;101408.56;4911428;29;20058;-68
2023/07/11 03:49:55;;;;;;;10.13;3.45;;;;;;;19.90;95.68;101408.94;4925529;28;20651;-67
2023/07/11 03:52:22;;;;;;;8.10;3.03;;;;;;;19.90;97.33;101406.28;4913332;29;20139;-67
2023/07/11 03:54:49;;;;;;;6.28;3.35;;;;;;;19.93;96.89;101402.38;4923294;29;20102;-67
2023/07/11 03:57:16;;;;;;;8.27;2.92;;;;;;;19.92;96.58;101406.91;4926892;29;20055;-67
2023/07/11 03:59:42;;;;;;;7.50;3.40;;;;;;;19.95;96.72;101403.84;4924209;29;20087;-67
2023/07/11 04:02:09;;;;;;;10.45;2.85;;;;;;;19.91;94.64;101402.56;4925794;29;20047;-68
2023/07/11 04:04:35;;;;;;;7.38;3.08;;;;;;;19.91;94.61;101407.91;4932795;29;20048;-67
2023/07/11 04:07:02;;;;;;;6.50;3.00;;;;;;;19.92;96.05;101406.09;4928277;28;20150;-68
2023/07/11 04:09:29;;;;;;;9.67;3.20;;;;;;;19.92;95.97;101404.22;4924744;29;20051;-69
2023/07/11 04:11:56;;;;;;;6.45;3.05;;;;;;;19.86;96.18;101404.19;4924120;29;20047;-67
2023/07/11 04:14:22;;;;;;;9.55;3.17;;;;;;;19.88;96.46;101399.50;4928153;29;20071;-67
2023/07/11 04:16:49;;;;;;;6.93;3.20;;;;;;;19.82;95.61;101393.09;4924033;29;20405;-68
2023/07/11 04:19:16;;;;;;;6.35;2.85;;;;;;;19.80;96.23;101391.63;4930744;29;20067;-68
2023/07/11 04:21:43;;;;;;;9.20;2.72;;;;;;;19.86;95.43;101394.38;4922722;29;20079;-68
2023/07/11 04:24:09;;;;;;;5.95;3.05;;;;;;;19.84;96.73;101395.59;4922664;29;20516;-67
2023/07/11 04:26:36;;;;;;;8.18;3.00;;;;;;;19.81;95.60;101390.63;4930203;29;20082;-67
2023/07/11 04:29:02;;;;;;;6.40;3.70;;;;;;;19.83;96.52;101389.41;4923832;28;20509;-68
2023/07/11 04:31:29;;;;;;;4.22;2.50;;;;;;;19.81;95.68;101390.63;4929539;29;20177;-67
2023/07/11 04:33:55;;;;;;;6.15;3.05;;;;;;;19.80;96.70;101388.97;4919683;29;20086;-67
2023/07/11 04:36:22;;;;;;;7.18;2.90;;;;;;;19.83;96.23;101383.28;4926147;29;20059;-67
2023/07/11 04:38:48;;;;;;;5.97;2.92;;;;;;;19.84;96.70;101387.59;4929489;29;20119;-68
2023/07/11 04:41:18;;;;;;;6.90;3.00;;;;;;;19.83;96.57;101378.75;4904509;28;20081;-67
2023/07/11 04:43:44;;;;;;;4.28;2.90;;;;;;;19.84;96.58;101379.63;4929329;29;20056;-67
2023/07/11 04:46:11;;;;;;;5.70;2.90;;;;;;;19.79;98.23;101374.03;4919467;29;20082;-68
2023/07/11 04:48:37;;;;;;;6.40;3.00;;;;;;;19.78;98.20;101375.88;4918017;29;20505;-67
2023/07/11 04:51:07;;;;;;;8.45;3.45;;;;;;;19.84;97.70;101371.63;4901139;28;20097;-67
2023/07/11 04:53:34;;;;;;;8.68;2.97;;;;;;;19.85;97.84;101370.59;4926867;29;20465;-67
2023/07/11 04:56:06;;;;;;;8.05;2.88;;;;;;;19.92;97.87;101369.63;4929379;29;20675;-67
2023/07/11 04:58:34;;;;;;;7.82;3.00;;;;;;;19.87;98.54;101361.38;4919452;29;20465;-68
2023/07/11 05:01:19;;;;;;;7.03;3.40;;;;;;;19.85;98.65;101363.41;4909062;29;20666;-68
2023/07/11 05:03:49;;;;;;;11.43;3.30;;;;;;;19.84;99.16;101353.81;4913192;29;20083;-68
2023/07/11 05:06:16;;;;;;;7.05;2.90;;;;;;;19.87;99.90;101360.56;4931333;29;20564;-67
2023/07/11 05:08:43;;;;;;;6.45;3.10;;;;;;;19.88;99.13;101356.91;4906201;29;20155;-69
2023/07/11 05:11:13;;;;;;;6.50;2.90;;;;;;;19.91;99.76;101348.50;4913218;29;20493;-68
2023/07/11 05:13:41;;;;;;;5.30;2.50;;;;;;;20.01;98.57;101359.63;4924467;29;20138;-68
2023/07/11 05:16:12;;;;;;;;;;;;;;;20.07;97.91;101345.56;4929636;29;20110;-68
2023/07/11 05:18:40;;;;;;;6.00;3.00;;;;;;;20.07;99.96;101350.88;4931021;29;20002;-70
2023/07/11 05:21:12;;;;;;;7.65;2.63;;;;;;;20.03;98.79;101349.63;4912929;29;20099;-68
2023/07/11 05:23:38;;;;;;;8.00;3.13;;;;;;;20.07;99.03;101337.56;4928347;29;20098;-70
2023/07/11 05:26:06;;;;;;;9.85;3.72;;;;;;;20.13;98.73;101338.59;4908854;29;20568;-67
2023/07/11 05:28:33;;;;;;;;;;;;;;;20.18;98.04;101341.50;4927014;29;20052;-67
2023/07/11 05:31:01;;;;;;;5.25;2.85;;;;;;;20.22;98.38;101331.28;4922798;29;20332;-69
2023/07/11 05:33:29;;;;;;;5.10;2.80;;;;;;;20.25;98.36;101329.03;4932086;29;20107;-68
2023/07/11 05:36:15;;;;;;;7.43;3.20;;;;;;;20.29;98.99;101324.97;4931030;29;20083;-67
2023/07/11 05:38:41;;;;;;;8.40;2.95;;;;;;;20.38;95.90;101328.25;4930435;29;20048;-67
2023/07/11 05:41:08;;;;;;;9.65;3.30;;;;;;;20.42;96.16;101320.69;4931716;29;20134;-70
2023/07/11 05:43:35;;;;;;;8.30;3.47;;;;;;;20.42;96.99;101313.53;4921401;29;20489;-67
2023/07/11 05:46:01;;;;;;;10.52;3.15;;;;;;;20.46;96.93;101314.75;4927153;29;20052;-67
2023/07/11 05:48:28;;;;;;;5.95;2.72;;;;;;;20.53;95.48;101315.63;4926686;29;20402;-67
2023/07/11 05:51:09;;;;;;;6.65;2.88;;;;;;;20.62;96.11;101304.81;4914828;29;20108;-67
2023/07/11 05:53:36;;;;;;;7.93;3.47;;;;;;;20.67;94.88;101310.34;4925189;29;20074;-67
2023/07/11 05:56:03;;;;;;;7.55;3.30;;;;;;;20.74;93.65;101309.34;4928117;29;20200;-68
2023/07/11 05:58:31;;;;;;;8.45;3.38;;;;;;;20.77;93.05;101307.31;4923611;29;20106;-67
2023/07/11 06:00:58;;;;;;;5.03;2.88;;;;;;;20.83;93.83;101303.81;4926254;29;20083;-67
2023/07/11 06:03:26;;;;;;;8.77;3.00;;;;;;;20.88;95.22;101298.72;4930239;29;20051;-67
2023/07/11 06:05:54;;;;;;;9.88;3.13;;;;;;;20.87;94.53;101286.41;4909361;29;20552;-68
2023/07/11 06:08:20;;;;;;;6.53;2.80;;;;;;;20.94;93.64;101285.38;4928991;29;20053;-67
2023/07/11 06:10:47;;;;;;;6.60;2.92;;;;;;;21.03;92.69;101288.69;4922160;29;21040;-69
2023/07/11 06:13:14;;;;;;;6.43;3.17;;;;;;;21.09;93.35;101287.88;4927054;29;20052;-67
2023/07/11 06:15:41;;;;;;;10.83;3.37;;;;;;;21.17;93.39;101286.00;4927976;29;20082;-67
2023/07/11 06:18:08;;;;;;;7.38;2.80;;;;;;;21.22;91.72;101273.69;4927179;29;20050;-67
2023/07/11 06:20:34;;;;;;;7.03;2.88;;;;;;;21.31;91.41;101279.66;4932294;29;20044;-67
2023/07/11 06:23:01;;;;;;;6.35;2.67;;;;;;;21.36;86.71;101279.84;4916573;29;20126;-67
2023/07/11 06:25:27;;;;;;;5.22;2.47;;;;;;;21.41;87.00;101281.91;4926616;29;20052;-69
2023/07/11 06:27:54;;;;;;;8.73;2.28;;;;;;;21.50;85.73;101273.50;4917058;29;20052;-68
2023/07/11 06:30:20;;;;;;;7.70;2.50;;;;;;;21.57;83.54;101265.47;4928139;29;20047;-68
2023/07/11 06:32:47;;;;;;;10.48;2.55;;;;;;;21.63;83.09;101275.31;4929676;29;20623;-68
2023/07/11 06:35:13;;;;;;;5.40;2.50;;;;;;;21.68;79.84;101275.53;4924425;29;20052;-68
2023/07/11 06:37:40;;;;;;;6.45;2.60;;;;;;;21.79;82.02;101278.56;4924170;29;20527;-69
2023/07/11 06:40:08;;;;;;;5.32;2.60;;;;;;;21.86;80.08;101268.69;4919483;29;20079;-70
2023/07/11 06:42:35;;;;;;;9.98;2.47;;;;;;;21.94;78.05;101271.13;4931170;29;20047;-67
2023/07/11 06:45:02;;;;;;;7.20;2.58;;;;;;;22.00;79.11;101269.47;4918889;29;20518;-67
2023/07/11 06:47:28;;;;;;;5.07;2.30;;;;;;;22.08;78.43;101267.38;4932505;29;20059;-69
2023/07/11 06:49:55;;;;;;;7.93;2.60;;;;;;;22.15;79.78;101275.38;4931410;29;20132;-66
2023/07/11 06:52:22;;;;;;;6.95;3.25;;;;;;;22.22;79.43;101267.31;4921345;29;20051;-68
2023/07/11 06:54:48;;;;;;;7.15;2.75;;;;;;;22.20;79.85;101264.84;4928803;29;20192;-68
2023/07/11 06:57:14;;;;;;;7.15;2.72;;;;;;;22.30;81.93;101259.91;4921313;29;20110;-67
2023/07/11 06:59:41;;;;;;;7.03;2.90;;;;;;;22.38;81.00;101264.16;4928633;29;20618;-67
2023/07/11 07:02:09;;;;;;;5.30;2.70;;;;;;;22.47;77.76;101259.41;4929567;29;20055;-66
2023/07/11 07:04:36;;;;;;;6.45;2.53;;;;;;;22.56;78.11;101255.47;4931255;29;20107;-67
2023/07/11 07:07:02;;;;;;;6.07;2.75;;;;;;;22.59;75.41;101263.03;4924787;29;20572;-70
2023/07/11 07:09:29;;;;;;;10.25;3.08;;;;;;;22.61;73.68;101265.50;4921227;28;20052;-67
2023/07/11 07:11:55;;;;;;;6.50;2.88;;;;;;;22.65;74.48;101267.50;4932028;29;20508;-67
2023/07/11 07:14:22;;;;;;;11.45;3.53;;;;;;;22.72;75.35;101262.13;4925318;29;20115;-67
2023/07/11 07:16:49;;;;;;;9.63;2.78;;;;;;;22.79;76.17;101268.22;4931010;29;20695;-67
2023/07/11 07:19:16;;;;;;;7.63;3.05;;;;;;;22.84;75.45;101256.91;4921647;29;20560;-67
2023/07/11 07:21:42;;;;;;;9.63;3.00;;;;;;;22.87;74.97;101259.13;4929196;29;20051;-66
2023/07/11 07:24:09;;;;;;;8.18;3.30;;;;;;;22.88;74.33;101261.59;4931573;29;20060;-67
2023/07/11 07:26:35;;;;;;;7.10;3.78;;;;;;;22.93;74.63;101262.78;4922012;29;20051;-66
2023/07/11 07:29:02;;;;;;;7.70;3.22;;;;;;;23.01;75.23;101259.84;4930551;29;20051;-67
2023/07/11 07:31:28;;;;;;;9.90;3.97;;;;;;;23.02;72.88;101262.34;4916199;29;20083;-66
2023/07/11 07:33:55;;;;;;;14.10;3.90;;;;;;;23.03;73.49;101260.47;4909354;29;20094;-67
2023/07/11 07:36:22;;;;;;;8.98;3.30;;;;;;;23.05;72.96;101259.25;4924395;29;20485;-66
2023/07/11 07:38:48;;;;;;;6.30;3.28;;;;;;;23.15;74.36;101256.06;4927326;29;20063;-67
2023/07/11 07:41:15;;;;;;;8.32;3.15;;;;;;;23.21;74.37;101254.38;4934814;29;20051;-67
2023/07/11 07:43:44;;;;;;;7.70;2.80;;;;;;;23.33;75.96;101259.81;4924927;28;20040;-67
2023/07/11 07:46:14;;;;;;;12.63;3.50;;;;;;;23.37;71.76;101253.78;4924981;29;20051;-66
2023/07/11 07:48:41;;;;;;;5.40;3.25;;;;;;;23.38;71.47;101242.03;4916923;29;20142;-67
2023/07/11 07:51:11;;;;;;;8.17;3.77;;;;;;;23.48;71.39;101238.84;4908242;29;20119;-66
2023/07/11 07:53:37;;;;;;;6.93;3.40;;;;;;;23.55;71.14;101238.78;4925291;28;20058;-66
2023/07/11 07:56:09;;;;;;;7.38;2.60;;;;;;;23.64;71.11;101230.25;4929125;29;20055;-68
2023/07/11 07:58:36;;;;;;;6.18;2.83;;;;;;;23.69;69.36;101238.41;4928242;29;20325;-67
2023/07/11 08:01:11;;;;;;;7.97;3.55;;;;;;;23.76;66.86;101240.22;4923761;29;20541;-67
2023/07/11 08:03:38;;;;;;;7.25;2.55;;;;;;;23.85;68.00;101228.16;4930557;29;20133;-67
2023/07/11 08:06:06;;;;;;;6.25;2.53;;;;;;;23.97;65.31;101225.56;4923791;29;20501;-67
2023/07/11 08:08:35;;;;;;;8.52;3.40;;;;;;;24.00;64.91;101225.91;4930686;29;20113;-66
2023/07/11 08:11:04;;;;;;;9.75;3.60;;;;;;;24.07;64.99;101218.63;4921638;29;20107;-68
2023/07/11 08:13:31;;;;;;;7.70;2.67;;;;;;;24.17;63.34;101225.28;4919763;29;20684;-69
2023/07/11 08:16:14;;;;;;;8.18;2.72;;;;;;;24.19;60.72;101212.50;4909799;29;20453;-67
2023/07/11 08:18:55;;;;;;;6.38;2.50;;;;;;;24.31;59.98;101212.53;4927202;29;20087;-66
2023/07/11 08:21:23;;;;;;;5.03;2.78;;;;;;;24.42;61.04;101207.22;4929979;29;20765;-67
2023/07/11 08:23:50;;;;;;;8.05;2.92;;;;;;;24.49;60.30;101212.47;4919777;29;20063;-67
2023/07/11 08:26:17;;;;;;;10.52;2.67;;;;;;;24.58;60.29;101208.44;4930225;29;20540;-69
2023/07/11 08:28:43;;;;;;;11.02;3.13;;;;;;;24.64;60.00;101212.06;4911427;29;20146;-67
2023/07/11 08:31:09;;;;;;;7.47;2.67;;;;;;;24.75;58.88;101208.56;4928201;29;20058;-68
2023/07/11 08:33:36;;;;;;;5.22;2.25;;;;;;;24.84;57.17;101203.69;4924554;29;20410;-67
2023/07/11 08:36:03;;;;;;;5.80;2.65;;;;;;;25.01;58.42;101203.81;4924698;29;20059;-68
2023/07/11 08:38:30;;;;;;;6.45;2.20;;;;;;;25.22;57.85;101197.88;4924999;28;20099;-70
2023/07/11 08:40:56;;;;;;;9.10;2.60;;;;;;;25.52;55.83;101204.13;4924738;29;20188;-68
2023/07/11 08:43:29;;;;;;;6.20;2.20;;;;;;;25.83;55.46;101195.66;4926129;29;20090;-66
2023/07/11 08:46:05;;;;;;;3.83;2.20;;;;;;;25.95;53.53;101205.56;4922989;29;20107;-68
2023/07/11 08:48:45;;;;;;;7.60;2.30;;;;;;;26.09;52.51;101192.66;4928621;29;20048;-67
2023/07/11 08:51:24;;;;;;;5.07;1.98;;;;;;;26.40;54.02;101194.00;4929647;29;20050;-67
2023/07/11 08:54:01;;;;;;;9.57;2.63;;;;;;;26.59;52.37;101191.94;4932687;29;20657;-68
2023/07/11 08:56:36;;;;;;;6.05;2.13;;;;;;;26.84;51.29;101186.13;4922930;29;20051;-69
2023/07/11 08:59:14;;;;;;;6.20;2.08;;;;;;;27.02;51.22;101190.44;4935447;29;20059;-66
2023/07/11 09:02:06;;;;;;;8.18;2.42;;;;;;;27.35;51.04;101178.00;4931010;29;20055;-67
2023/07/11 09:04:35;;;;;;;7.80;2.50;;;;;;;27.43;49.36;101188.31;4942273;29;20051;-67
2023/07/11 09:07:13;;;;;;;8.30;2.45;;;;;;;27.53;49.11;101184.94;4937961;29;20536;-68
2023/07/11 09:09:41;;;;;;;4.50;1.85;;;;;;;27.50;49.71;101175.50;4928237;29;20066;-66
2023/07/11 09:12:38;;;;;;;6.57;2.47;;;;;;;27.37;49.55;101181.25;4931666;29;20855;-65
2023/07/11 09:15:07;;;;;;;8.38;1.90;;;;;;;27.73;49.87;101163.59;4925642;29;20536;-69
2023/07/11 09:17:49;;;;;;;5.97;2.20;;;;;;;27.99;49.98;101175.53;4916794;29;20048;-67
2023/07/11 09:20:26;;;;;;;6.82;2.28;;;;;;;28.09;48.42;101177.50;4914273;28;20592;-67
2023/07/11 09:23:09;;;;;;;9.10;2.10;;;;;;;28.06;48.93;101167.22;4929568;29;20051;-66
2023/07/11 09:25:42;;;;;;;7.75;2.03;;;;;;;28.19;49.39;101172.19;4907754;29;20060;-67
2023/07/11 09:28:22;;;;;;;7.35;1.95;;;;;;;28.02;48.87;101170.69;4927086;29;20087;-68
2023/07/11 09:30:56;;;;;;;5.50;2.28;;;;;;;28.17;49.38;101177.03;4924287;28;20480;-65
2023/07/11 09:33:26;;;;;;;;;;;;;;;28.17;48.39;101174.34;4934586;29;20507;-66
2023/07/11 09:35:52;;;;;;;7.55;2.10;;;;;;;28.24;48.59;101178.69;4922493;29;20101;-66
2023/07/11 09:38:39;;;;;;;9.05;1.83;;;;;;;28.37;48.54;101178.28;4930790;29;20052;-66
2023/07/11 09:41:16;;;;;;;6.67;1.60;;;;;;;28.35;47.63;101170.44;4934300;29;20083;-65
2023/07/11 09:43:43;;;;;;;6.85;1.90;;;;;;;28.59;48.35;101160.13;4931747;29;20087;-65
2023/07/11 09:46:20;;;;;;;5.88;2.30;;;;;;;28.75;47.72;101171.03;4931223;29;20071;-65
2023/07/11 09:48:50;;;;;;;4.47;2.05;;;;;;;28.82;47.84;101150.03;4921716;28;20079;-68
2023/07/11 09:51:50;;;;;;;4.72;1.73;;;;;;;28.79;48.14;101154.06;4927318;29;20787;-66
2023/07/11 09:54:23;;;;;;;5.22;1.98;;;;;;;28.69;48.78;101155.88;4925737;28;20127;-66
2023/07/11 09:56:50;;;;;;;5.45;1.95;;;;;;;28.44;48.24;101146.50;4931484;29;20501;-69
2023/07/11 09:59:20;;;;;;;7.85;2.25;;;;;;;28.39;48.27;101146.47;4926769;29;20124;-66
2023/07/11 10:01:55;;;;;;;4.65;2.10;;;;;;;28.28;49.08;101155.53;4929574;29;20055;-67
2023/07/11 10:04:24;;;;;;;5.82;1.85;;;;;;;28.18;47.97;101153.56;4921316;29;20051;-68
2023/07/11 10:07:01;;;;;;;6.95;2.45;;;;;;;28.27;48.33;101151.22;4929028;29;20056;-66
2023/07/11 10:09:31;;;;;;;5.78;2.00;;;;;;;28.21;49.00;101144.97;4931096;29;20751;-66
2023/07/11 10:12:00;;;;;;;6.47;2.15;;;;;;;28.24;48.36;101141.75;4923045;29;20062;-67
2023/07/11 10:14:32;;;;;;;5.88;1.85;;;;;;;28.12;48.06;101136.53;4911777;29;20153;-65
2023/07/11 10:17:02;;;;;;;5.10;2.38;;;;;;;28.23;48.28;101142.00;4920401;29;20079;-68
2023/07/11 10:19:30;;;;;;;6.50;2.05;;;;;;;28.33;48.85;101136.72;4923136;29;20064;-65
2023/07/11 10:21:59;;;;;;;4.25;1.88;;;;;;;28.25;48.59;101137.19;4923982;29;20051;-68
2023/07/11 10:24:32;;;;;;;5.75;2.10;;;;;;;28.50;47.03;101147.34;4929600;29;20090;-67
2023/07/11 10:27:05;;;;;;;4.47;2.30;;;;;;;28.58;47.10;101138.81;4925778;29;20055;-67
2023/07/11 10:29:41;;;;;;;8.98;2.63;;;;;;;28.91;48.31;101131.44;4931535;29;20147;-65
2023/07/11 10:32:14;;;;;;;6.18;2.47;;;;;;;28.90;45.66;101129.84;4926938;29;20553;-68
2023/07/11 10:34:51;;;;;;;7.25;2.30;;;;;;;28.83;45.80;101121.94;4919256;28;20086;-69
2023/07/11 10:37:34;;;;;;;5.22;2.15;;;;;;;28.90;45.50;101119.03;4931268;29;20057;-66
2023/07/11 10:40:24;;;;;;;3.78;1.88;;;;;;;29.04;46.40;101124.78;4925785;29;20533;-65
2023/07/11 10:43:25;;;;;;;6.95;2.30;;;;;;;28.95;45.35;101125.28;4930987;29;20103;-66
2023/07/11 10:46:00;;;;;;;9.43;2.65;;;;;;;28.88;46.07;101126.59;4920166;29;20047;-66
2023/07/11 10:48:32;;;;;;;7.03;2.63;;;;;;;29.13;46.18;101124.03;4926838;29;20134;-65
2023/07/11 10:51:03;;;;;;;5.95;2.40;;;;;;;29.42;45.61;101111.97;4923275;29;20557;-66
2023/07/11 10:53:41;;;;;;;5.72;2.65;;;;;;;29.77;45.26;101111.28;4931006;29;20114;-67
2023/07/11 10:56:25;;;;;;;;;;;;;;;29.66;43.85;101101.47;4927138;29;20061;-66
2023/07/11 10:58:53;;;;;;;6.03;2.50;;;;;;;29.76;43.70;101102.34;4922861;29;20008;-68
2023/07/11 11:01:41;;;;;;;5.75;2.50;;;;;;;30.08;45.32;101105.91;4924268;29;20432;-65
2023/07/11 11:04:38;;;;;;;4.03;2.35;;;;;;;30.37;43.18;101097.25;4917673;29;20048;-67
2023/07/11 11:07:37;;;;;;;6.05;2.40;;;;;;;30.46;43.76;101099.13;4924887;29;20056;-65
2023/07/11 11:10:29;;;;;;;8.63;2.83;;;;;;;30.40;43.57;101092.09;4929665;29;20060;-65
2023/07/11 11:13:13;;;;;;;6.15;2.47;;;;;;;30.32;44.65;101088.06;4919066;29;20093;-64
2023/07/11 11:15:59;;;;;;;5.38;2.60;;;;;;;30.14;43.34;101085.88;4925347;29;20050;-65
2023/07/11 11:19:06;;;;;;;6.78;2.53;;;;;;;29.80;44.03;101088.31;4928902;29;20111;-67
2023/07/11 11:21:52;;;;;;;6.55;2.55;;;;;;;30.17;44.22;101080.72;4909277;29;20397;-66
2023/07/11 11:24:49;;;;;;;6.68;2.30;;;;;;;30.38;44.82;101078.03;4920331;28;20060;-65
2023/07/11 11:27:18;;;;;;;4.60;2.33;;;;;;;30.09;44.12;101073.16;4925173;29;20205;-66
2023/07/11 11:30:00;;;;;;;4.80;2.45;;;;;;;30.19;44.72;101076.94;4925007;29;20433;-66
2023/07/11 11:32:40;;;;;;;6.32;2.20;;;;;;;30.26;44.43;101074.78;4926661;29;20051;-68
2023/07/11 11:35:17;;;;;;;3.47;2.17;;;;;;;30.57;44.64;101066.63;4932497;29;20051;-66
2023/07/11 11:38:18;;;;;;;12.48;2.47;;;;;;;30.73;43.66;101069.00;4919462;29;20090;-66